sensor_id;sensor_type;location;lat;lon;timestamp;pressure;altitude;pressure_sealevel;temperature;humidity
51099;BME280;37146;48.210;16.234;2023-04-30T00:01:46;98907.13;;;10.60;100.00
51099;BME280;37146;48.210;16.234;2023-04-30T00:04:12;98905.50;;;10.57;100.00
51099;BME280;37146;48.210;16.234;2023-04-30T00:06:37;98903.75;;;10.56;100.00
51099;BME280;37146;48.210;16.234;2023-04-30T00:09:03;98913.81;;;10.51;100.00
51099;BME280;37146;48.210;16.234;2023-04-30T00:11:28;98909.91;;;10.41;100.00
51099;BME280;37146;48.210;16.234;2023-04-30T00:13:53;98905.72;;;10.35;100.00
51099;BME280;37146;48.210;16.234;2023-04-30T00:16:21;98912.41;;;10.26;100.00
51099;BME280;37146;48.210;16.234;2023-04-30T00:18:46;98917.75;;;10.26;100.00
51099;BME280;37146;48.210;16.234;2023-04-30T00:21:11;98925.44;;;10.15;100.00
51099;BME280;37146;48.210;16.234;2023-04-30T00:23:37;98927.13;;;10.17;100.00
51099;BME280;37146;48.210;16.234;2023-04-30T00:26:02;98925.44;;;10.15;100.00
51099;BME280;37146;48.210;16.234;2023-04-30T00:28:28;98937.13;;;10.14;100.00
51099;BME280;37146;48.210;16.234;2023-04-30T00:30:54;98932.84;;;10.10;100.00
51099;BME280;37146;48.210;16.234;2023-04-30T00:33:20;98938.56;;;10.02;100.00
51099;BME280;37146;48.210;16.234;2023-04-30T00:35:46;98943.22;;;9.98;100.00
51099;BME280;37146;48.210;16.234;2023-04-30T00:38:11;98940.88;;;9.92;100.00
51099;BME280;37146;48.210;16.234;2023-04-30T00:40:37;98941.63;;;9.77;100.00
51099;BME280;37146;48.210;16.234;2023-04-30T00:43:04;98940.03;;;9.72;100.00
51099;BME280;37146;48.210;16.234;2023-04-30T00:45:30;98938.16;;;9.74;100.00
51099;BME280;37146;48.210;16.234;2023-04-30T00:47:57;98950.81;;;9.52;100.00
51099;BME280;37146;48.210;16.234;2023-04-30T00:50:23;98949.16;;;9.68;100.00
51099;BME280;37146;48.210;16.234;2023-04-30T00:52:52;98949.44;;;9.62;100.00
51099;BME280;37146;48.210;16.234;2023-04-30T00:55:17;98952.09;;;9.62;100.00
51099;BME280;37146;48.210;16.234;2023-04-30T00:57:44;98958.84;;;9.52;100.00
51099;BME280;37146;48.210;16.234;2023-04-30T01:00:10;98955.50;;;9.66;100.00
51099;BME280;37146;48.210;16.234;2023-04-30T01:02:40;98963.09;;;9.56;100.00
51099;BME280;37146;48.210;16.234;2023-04-30T01:05:06;98965.41;;;9.64;100.00
51099;BME280;37146;48.210;16.234;2023-04-30T01:07:32;98965.31;;;9.65;100.00
51099;BME280;37146;48.210;16.234;2023-04-30T01:09:59;98966.47;;;9.59;100.00
51099;BME280;37146;48.210;16.234;2023-04-30T01:12:38;98962.19;;;9.74;100.00
51099;BME280;37146;48.210;16.234;2023-04-30T01:15:30;98965.31;;;9.65;100.00
51099;BME280;37146;48.210;16.234;2023-04-30T01:20:27;98971.84;;;9.77;100.00
51099;BME280;37146;48.210;16.234;2023-04-30T01:22:54;98969.03;;;9.80;100.00
51099;BME280;37146;48.210;16.234;2023-04-30T01:25:34;98971.63;;;9.82;100.00
51099;BME280;37146;48.210;16.234;2023-04-30T01:30:38;98973.09;;;9.70;100.00
51099;BME280;37146;48.210;16.234;2023-04-30T01:33:05;98968.19;;;9.80;100.00
51099;BME280;37146;48.210;16.234;2023-04-30T01:53:51;98981.78;;;9.75;100.00
51099;BME280;37146;48.210;16.234;2023-04-30T01:56:23;98974.38;;;9.80;100.00
51099;BME280;37146;48.210;16.234;2023-04-30T01:58:51;98986.31;;;9.73;100.00
51099;BME280;37146;48.210;16.234;2023-04-30T02:01:26;98978.13;;;9.76;100.00
51099;BME280;37146;48.210;16.234;2023-04-30T02:03:52;98984.84;;;9.85;100.00
51099;BME280;37146;48.210;16.234;2023-04-30T02:06:18;98981.69;;;9.77;100.00
51099;BME280;37146;48.210;16.234;2023-04-30T02:08:43;98984.34;;;9.77;100.00
51099;BME280;37146;48.210;16.234;2023-04-30T02:11:10;98991.28;;;9.81;100.00
51099;BME280;37146;48.210;16.234;2023-04-30T02:13:35;98993.31;;;9.75;100.00
51099;BME280;37146;48.210;16.234;2023-04-30T02:16:00;99005.25;;;9.68;100.00
51099;BME280;37146;48.210;16.234;2023-04-30T02:18:26;99005.06;;;9.71;100.00
51099;BME280;37146;48.210;16.234;2023-04-30T02:20:51;99001.53;;;9.71;100.00
51099;BME280;37146;48.210;16.234;2023-04-30T02:23:18;99004.94;;;9.74;100.00
51099;BME280;37146;48.210;16.234;2023-04-30T02:25:48;99001.31;;;9.75;100.00
51099;BME280;37146;48.210;16.234;2023-04-30T02:28:13;99003.84;;;9.79;100.00
51099;BME280;37146;48.210;16.234;2023-04-30T02:30:39;99000.31;;;9.78;100.00
51099;BME280;37146;48.210;16.234;2023-04-30T02:33:04;98997.72;;;9.77;100.00
51099;BME280;37146;48.210;16.234;2023-04-30T02:35:30;99005.88;;;9.73;100.00
51099;BME280;37146;48.210;16.234;2023-04-30T02:37:57;99007.75;;;9.71;100.00
51099;BME280;37146;48.210;16.234;2023-04-30T02:40:22;99009.91;;;9.63;100.00
51099;BME280;37146;48.210;16.234;2023-04-30T02:42:49;99024.00;;;9.67;100.00
51099;BME280;37146;48.210;16.234;2023-04-30T02:45:14;99023.50;;;9.58;100.00
51099;BME280;37146;48.210;16.234;2023-04-30T02:47:40;99019.19;;;9.56;100.00
51099;BME280;37146;48.210;16.234;2023-04-30T02:50:17;99028.75;;;9.60;100.00
51099;BME280;37146;48.210;16.234;2023-04-30T02:52:43;99042.09;;;9.60;100.00
51099;BME280;37146;48.210;16.234;2023-04-30T02:55:09;99044.00;;;9.58;100.00
51099;BME280;37146;48.210;16.234;2023-04-30T02:57:34;99039.50;;;9.58;100.00
51099;BME280;37146;48.210;16.234;2023-04-30T02:59:59;99047.38;;;9.62;100.00
51099;BME280;37146;48.210;16.234;2023-04-30T03:02:30;99043.47;;;9.50;100.00
51099;BME280;37146;48.210;16.234;2023-04-30T03:04:55;99036.03;;;9.56;100.00
51099;BME280;37146;48.210;16.234;2023-04-30T03:07:23;99042.72;;;9.48;100.00
51099;BME280;37146;48.210;16.234;2023-04-30T03:09:49;99037.16;;;9.52;100.00
51099;BME280;37146;48.210;16.234;2023-04-30T03:12:16;99037.34;;;9.67;100.00
51099;BME280;37146;48.210;16.234;2023-04-30T03:14:41;99031.59;;;9.57;100.00
51099;BME280;37146;48.210;16.234;2023-04-30T03:17:07;99044.78;;;9.60;100.00
51099;BME280;37146;48.210;16.234;2023-04-30T03:19:33;99044.84;;;9.58;100.00
51099;BME280;37146;48.210;16.234;2023-04-30T03:21:59;99048.03;;;9.67;100.00
51099;BME280;37146;48.210;16.234;2023-04-30T03:24:25;99051.09;;;9.59;100.00
51099;BME280;37146;48.210;16.234;2023-04-30T03:26:50;99052.78;;;9.60;100.00
51099;BME280;37146;48.210;16.234;2023-04-30T03:29:15;99045.56;;;9.62;100.00
51099;BME280;37146;48.210;16.234;2023-04-30T03:31:49;99052.28;;;9.52;100.00
51099;BME280;37146;48.210;16.234;2023-04-30T03:34:18;99056.59;;;9.54;100.00
51099;BME280;37146;48.210;16.234;2023-04-30T03:36:48;99054.69;;;9.58;100.00
51099;BME280;37146;48.210;16.234;2023-04-30T03:39:26;99067.38;;;9.53;100.00
51099;BME280;37146;48.210;16.234;2023-04-30T03:41:51;99055.09;;;9.49;100.00
51099;BME280;37146;48.210;16.234;2023-04-30T03:44:17;99058.56;;;9.51;100.00
51099;BME280;37146;48.210;16.234;2023-04-30T03:46:44;99067.22;;;9.56;100.00
51099;BME280;37146;48.210;16.234;2023-04-30T03:49:09;99063.09;;;9.49;100.00
51099;BME280;37146;48.210;16.234;2023-04-30T03:51:36;99057.50;;;9.55;100.00
51099;BME280;37146;48.210;16.234;2023-04-30T03:54:07;99064.63;;;9.54;100.00
51099;BME280;37146;48.210;16.234;2023-04-30T03:56:37;99063.53;;;9.39;100.00
51099;BME280;37146;48.210;16.234;2023-04-30T03:59:05;99073.13;;;9.43;100.00
51099;BME280;37146;48.210;16.234;2023-04-30T04:01:32;99075.00;;;9.41;100.00
51099;BME280;37146;48.210;16.234;2023-04-30T04:03:59;99078.19;;;9.50;100.00
51099;BME280;37146;48.210;16.234;2023-04-30T04:06:26;99087.56;;;9.39;100.00
51099;BME280;37146;48.210;16.234;2023-04-30T04:08:51;99079.06;;;9.50;100.00
51099;BME280;37146;48.210;16.234;2023-04-30T04:11:17;99088.22;;;9.44;100.00
51099;BME280;37146;48.210;16.234;2023-04-30T04:13:43;99081.06;;;9.45;100.00
51099;BME280;37146;48.210;16.234;2023-04-30T04:16:09;99094.38;;;9.47;100.00
51099;BME280;37146;48.210;16.234;2023-04-30T04:18:36;99097.97;;;9.46;100.00
51099;BME280;37146;48.210;16.234;2023-04-30T04:21:01;99092.47;;;9.49;100.00
51099;BME280;37146;48.210;16.234;2023-04-30T04:23:26;99105.81;;;9.49;100.00
51099;BME280;37146;48.210;16.234;2023-04-30T04:25:52;99109.97;;;9.56;100.00
51099;BME280;37146;48.210;16.234;2023-04-30T04:28:18;99102.88;;;9.55;100.00
51099;BME280;37146;48.210;16.234;2023-04-30T04:30:43;99100.78;;;9.62;100.00
51099;BME280;37146;48.210;16.234;2023-04-30T04:33:08;99110.25;;;9.69;100.00
51099;BME280;37146;48.210;16.234;2023-04-30T04:35:34;99107.94;;;9.61;100.00
51099;BME280;37146;48.210;16.234;2023-04-30T04:38:00;99116.31;;;9.72;100.00
51099;BME280;37146;48.210;16.234;2023-04-30T04:40:25;99112.56;;;9.77;100.00
51099;BME280;37146;48.210;16.234;2023-04-30T04:42:50;99105.72;;;9.71;100.00
51099;BME280;37146;48.210;16.234;2023-04-30T04:45:16;99107.34;;;9.73;100.00
51099;BME280;37146;48.210;16.234;2023-04-30T04:47:41;99114.56;;;9.71;100.00
51099;BME280;37146;48.210;16.234;2023-04-30T04:50:06;99108.03;;;9.79;100.00
51099;BME280;37146;48.210;16.234;2023-04-30T04:52:32;99121.03;;;9.86;100.00
51099;BME280;37146;48.210;16.234;2023-04-30T04:54:57;99117.97;;;9.94;100.00
51099;BME280;37146;48.210;16.234;2023-04-30T04:57:22;99118.63;;;9.99;100.00
51099;BME280;37146;48.210;16.234;2023-04-30T04:59:47;99121.88;;;10.06;100.00
51099;BME280;37146;48.210;16.234;2023-04-30T05:02:13;99123.53;;;10.09;100.00
51099;BME280;37146;48.210;16.234;2023-04-30T05:04:39;99122.50;;;10.11;100.00
51099;BME280;37146;48.210;16.234;2023-04-30T05:07:05;99128.28;;;10.21;100.00
51099;BME280;37146;48.210;16.234;2023-04-30T05:09:32;99125.53;;;10.23;100.00
51099;BME280;37146;48.210;16.234;2023-04-30T05:11:57;99131.06;;;10.37;100.00
51099;BME280;37146;48.210;16.234;2023-04-30T05:14:22;99134.22;;;10.47;100.00
51099;BME280;37146;48.210;16.234;2023-04-30T05:16:47;99136.38;;;10.39;100.00
51099;BME280;37146;48.210;16.234;2023-04-30T05:19:13;99136.34;;;10.58;100.00
51099;BME280;37146;48.210;16.234;2023-04-30T05:21:38;99144.44;;;10.56;100.00
51099;BME280;37146;48.210;16.234;2023-04-30T05:24:04;99140.66;;;10.60;100.00
51099;BME280;37146;48.210;16.234;2023-04-30T05:26:29;99140.06;;;10.73;100.00
51099;BME280;37146;48.210;16.234;2023-04-30T05:28:54;99138.63;;;10.65;100.00
51099;BME280;37146;48.210;16.234;2023-04-30T05:31:20;99132.16;;;10.70;98.91
51099;BME280;37146;48.210;16.234;2023-04-30T05:33:45;99142.34;;;10.80;96.56
51099;BME280;37146;48.210;16.234;2023-04-30T05:36:10;99140.69;;;10.95;96.69
51099;BME280;37146;48.210;16.234;2023-04-30T05:38:36;99139.13;;;10.91;97.69
51099;BME280;37146;48.210;16.234;2023-04-30T05:41:01;99142.34;;;10.98;100.00
51099;BME280;37146;48.210;16.234;2023-04-30T05:43:26;99150.78;;;11.08;95.05
51099;BME280;37146;48.210;16.234;2023-04-30T05:45:51;99148.34;;;11.03;95.21
51099;BME280;37146;48.210;16.234;2023-04-30T05:48:16;99139.91;;;11.11;94.07
51099;BME280;37146;48.210;16.234;2023-04-30T05:50:42;99154.56;;;11.21;94.78
51099;BME280;37146;48.210;16.234;2023-04-30T05:53:07;99155.66;;;11.17;93.68
51099;BME280;37146;48.210;16.234;2023-04-30T05:55:32;99162.44;;;11.24;94.79
51099;BME280;37146;48.210;16.234;2023-04-30T05:57:58;99149.91;;;11.07;94.55
51099;BME280;37146;48.210;16.234;2023-04-30T06:00:23;99161.16;;;11.14;93.07
51099;BME280;37146;48.210;16.234;2023-04-30T06:02:49;99161.78;;;11.19;92.71
51099;BME280;37146;48.210;16.234;2023-04-30T06:05:14;99158.06;;;11.22;93.43
51099;BME280;37146;48.210;16.234;2023-04-30T06:07:39;99167.50;;;11.47;91.74
51099;BME280;37146;48.210;16.234;2023-04-30T06:10:05;99161.66;;;11.56;91.88
51099;BME280;37146;48.210;16.234;2023-04-30T06:12:30;99163.97;;;11.46;92.65
51099;BME280;37146;48.210;16.234;2023-04-30T06:14:56;99158.31;;;11.35;90.14
51099;BME280;37146;48.210;16.234;2023-04-30T06:17:21;99167.50;;;11.47;89.64
51099;BME280;37146;48.210;16.234;2023-04-30T06:19:47;99167.00;;;11.73;89.18
51099;BME280;37146;48.210;16.234;2023-04-30T06:22:12;99168.50;;;11.62;89.43
51099;BME280;37146;48.210;16.234;2023-04-30T06:24:37;99164.50;;;11.53;88.59
51099;BME280;37146;48.210;16.234;2023-04-30T06:27:02;99166.16;;;11.55;88.91
51099;BME280;37146;48.210;16.234;2023-04-30T06:29:28;99167.31;;;11.67;89.28
51099;BME280;37146;48.210;16.234;2023-04-30T06:31:53;99161.47;;;11.93;88.39
51099;BME280;37146;48.210;16.234;2023-04-30T06:34:18;99160.56;;;12.10;86.01
51099;BME280;37146;48.210;16.234;2023-04-30T06:36:45;99164.41;;;12.21;84.40
51099;BME280;37146;48.210;16.234;2023-04-30T06:39:11;99162.31;;;12.27;86.14
51099;BME280;37146;48.210;16.234;2023-04-30T06:41:37;99160.56;;;12.26;84.60
51099;BME280;37146;48.210;16.234;2023-04-30T06:44:02;99164.41;;;12.37;81.77
51099;BME280;37146;48.210;16.234;2023-04-30T06:46:27;99153.00;;;12.18;81.75
51099;BME280;37146;48.210;16.234;2023-04-30T06:48:53;99154.09;;;12.30;82.33
51099;BME280;37146;48.210;16.234;2023-04-30T06:51:18;99154.88;;;12.32;78.94
51099;BME280;37146;48.210;16.234;2023-04-30T06:53:43;99160.63;;;11.92;79.93
51099;BME280;37146;48.210;16.234;2023-04-30T06:56:08;99163.94;;;12.29;79.91
51099;BME280;37146;48.210;16.234;2023-04-30T06:58:34;99168.59;;;12.74;78.07
51099;BME280;37146;48.210;16.234;2023-04-30T07:00:59;99172.31;;;12.71;79.54
51099;BME280;37146;48.210;16.234;2023-04-30T07:03:25;99171.97;;;12.77;79.57
51099;BME280;37146;48.210;16.234;2023-04-30T07:05:51;99162.28;;;12.59;78.30
51099;BME280;37146;48.210;16.234;2023-04-30T07:08:17;99168.13;;;12.81;78.74
51099;BME280;37146;48.210;16.234;2023-04-30T07:10:43;99176.44;;;12.93;77.23
51099;BME280;37146;48.210;16.234;2023-04-30T07:13:08;99172.03;;;12.45;74.82
51099;BME280;37146;48.210;16.234;2023-04-30T07:15:33;99167.88;;;13.17;74.57
51099;BME280;37146;48.210;16.234;2023-04-30T07:17:58;99171.09;;;13.38;70.54
51099;BME280;37146;48.210;16.234;2023-04-30T07:20:24;99161.44;;;13.79;69.99
51099;BME280;37146;48.210;16.234;2023-04-30T07:22:49;99166.28;;;13.88;71.97
51099;BME280;37146;48.210;16.234;2023-04-30T07:25:14;99170.41;;;13.34;73.47
51099;BME280;37146;48.210;16.234;2023-04-30T07:27:40;99167.13;;;13.29;72.40
51099;BME280;37146;48.210;16.234;2023-04-30T07:30:05;99175.69;;;13.66;72.38
51099;BME280;37146;48.210;16.234;2023-04-30T07:32:31;99176.13;;;13.44;73.23
51099;BME280;37146;48.210;16.234;2023-04-30T07:34:56;99177.53;;;13.05;74.64
51099;BME280;37146;48.210;16.234;2023-04-30T07:37:21;99176.44;;;13.54;74.61
51099;BME280;37146;48.210;16.234;2023-04-30T07:39:47;99169.16;;;13.99;73.26
51099;BME280;37146;48.210;16.234;2023-04-30T07:42:12;99170.47;;;13.63;68.30
51099;BME280;37146;48.210;16.234;2023-04-30T07:44:37;99171.16;;;13.36;69.51
51099;BME280;37146;48.210;16.234;2023-04-30T07:47:03;99179.88;;;13.41;67.25
51099;BME280;37146;48.210;16.234;2023-04-30T07:49:28;99185.59;;;13.05;73.07
51099;BME280;37146;48.210;16.234;2023-04-30T07:51:54;99179.78;;;13.27;68.51
51099;BME280;37146;48.210;16.234;2023-04-30T07:54:19;99179.91;;;13.56;67.15
51099;BME280;37146;48.210;16.234;2023-04-30T07:56:45;99189.38;;;13.61;66.84
51099;BME280;37146;48.210;16.234;2023-04-30T07:59:12;99182.38;;;14.02;61.49
51099;BME280;37146;48.210;16.234;2023-04-30T08:01:37;99183.50;;;14.13;63.64
51099;BME280;37146;48.210;16.234;2023-04-30T08:04:03;99182.59;;;13.99;59.73
51099;BME280;37146;48.210;16.234;2023-04-30T08:06:28;99189.84;;;14.12;61.05
51099;BME280;37146;48.210;16.234;2023-04-30T08:08:53;99181.19;;;14.63;58.68
51099;BME280;37146;48.210;16.234;2023-04-30T08:11:19;99193.19;;;14.86;60.24
51099;BME280;37146;48.210;16.234;2023-04-30T08:13:44;99181.56;;;14.44;58.31
51099;BME280;37146;48.210;16.234;2023-04-30T08:16:10;99179.09;;;14.26;59.82
51099;BME280;37146;48.210;16.234;2023-04-30T08:18:36;99194.09;;;14.16;61.60
51099;BME280;37146;48.210;16.234;2023-04-30T08:21:03;99191.03;;;14.22;59.55
51099;BME280;37146;48.210;16.234;2023-04-30T08:23:28;99201.25;;;14.44;59.79
51099;BME280;37146;48.210;16.234;2023-04-30T08:25:53;99200.47;;;14.42;58.72
51099;BME280;37146;48.210;16.234;2023-04-30T08:28:20;99196.22;;;13.96;58.55
51099;BME280;37146;48.210;16.234;2023-04-30T08:30:45;99205.53;;;13.76;61.22
51099;BME280;37146;48.210;16.234;2023-04-30T08:33:10;99206.78;;;13.85;59.20
51099;BME280;37146;48.210;16.234;2023-04-30T08:35:36;99215.78;;;13.55;59.37
51099;BME280;37146;48.210;16.234;2023-04-30T08:38:01;99214.63;;;13.44;59.70
51099;BME280;37146;48.210;16.234;2023-04-30T08:40:27;99211.84;;;13.60;62.70
51099;BME280;37146;48.210;16.234;2023-04-30T08:42:54;99215.44;;;13.75;62.49
51099;BME280;37146;48.210;16.234;2023-04-30T08:45:23;99198.53;;;13.88;62.82
51099;BME280;37146;48.210;16.234;2023-04-30T08:47:48;99218.69;;;13.81;60.45
51099;BME280;37146;48.210;16.234;2023-04-30T08:50:14;99218.47;;;13.69;61.03
51099;BME280;37146;48.210;16.234;2023-04-30T08:52:39;99220.94;;;13.43;63.44
51099;BME280;37146;48.210;16.234;2023-04-30T08:55:06;99219.97;;;13.14;64.44
51099;BME280;37146;48.210;16.234;2023-04-30T08:57:31;99217.34;;;12.82;66.60
51099;BME280;37146;48.210;16.234;2023-04-30T08:59:57;99224.50;;;12.81;68.17
51099;BME280;37146;48.210;16.234;2023-04-30T09:02:22;99222.19;;;12.75;67.54
51099;BME280;37146;48.210;16.234;2023-04-30T09:04:47;99218.38;;;12.63;69.39
51099;BME280;37146;48.210;16.234;2023-04-30T09:07:13;99221.03;;;12.79;69.26
51099;BME280;37146;48.210;16.234;2023-04-30T09:09:39;99220.56;;;13.03;67.61
51099;BME280;37146;48.210;16.234;2023-04-30T09:14:39;99230.88;;;13.11;70.20
51099;BME280;37146;48.210;16.234;2023-04-30T09:17:05;99228.19;;;13.11;69.21
51099;BME280;37146;48.210;16.234;2023-04-30T09:19:30;99223.66;;;13.27;70.46
51099;BME280;37146;48.210;16.234;2023-04-30T09:21:56;99225.53;;;13.41;68.88
51099;BME280;37146;48.210;16.234;2023-04-30T09:24:22;99222.69;;;13.59;71.45
51099;BME280;37146;48.210;16.234;2023-04-30T09:26:47;99223.38;;;13.77;67.57
51099;BME280;37146;48.210;16.234;2023-04-30T09:29:13;99219.34;;;13.99;69.21
51099;BME280;37146;48.210;16.234;2023-04-30T09:31:41;99219.25;;;14.29;66.22
51099;BME280;37146;48.210;16.234;2023-04-30T09:34:06;99211.25;;;14.42;64.86
51099;BME280;37146;48.210;16.234;2023-04-30T09:36:32;99214.16;;;14.66;65.72
51099;BME280;37146;48.210;16.234;2023-04-30T09:39:07;99217.16;;;15.04;65.61
51099;BME280;37146;48.210;16.234;2023-04-30T09:41:35;99210.69;;;15.59;61.16
51099;BME280;37146;48.210;16.234;2023-04-30T09:44:00;99209.66;;;16.14;61.57
51099;BME280;37146;48.210;16.234;2023-04-30T09:46:32;99208.25;;;16.08;60.24
51099;BME280;37146;48.210;16.234;2023-04-30T09:48:59;99199.28;;;16.07;62.24
51099;BME280;37146;48.210;16.234;2023-04-30T09:51:25;99201.19;;;16.68;57.79
51099;BME280;37146;48.210;16.234;2023-04-30T09:53:51;99200.75;;;17.23;56.27
51099;BME280;37146;48.210;16.234;2023-04-30T09:56:20;99195.63;;;17.43;56.76
51099;BME280;37146;48.210;16.234;2023-04-30T09:58:49;99200.03;;;17.91;54.48
51099;BME280;37146;48.210;16.234;2023-04-30T10:01:15;99195.00;;;17.39;54.12
51099;BME280;37146;48.210;16.234;2023-04-30T10:03:41;99180.88;;;18.05;53.11
51099;BME280;37146;48.210;16.234;2023-04-30T10:06:07;99187.03;;;16.65;53.13
51099;BME280;37146;48.210;16.234;2023-04-30T10:08:34;99180.53;;;17.40;53.44
51099;BME280;37146;48.210;16.234;2023-04-30T10:11:03;99180.59;;;17.27;56.11
51099;BME280;37146;48.210;16.234;2023-04-30T10:13:42;99187.00;;;17.02;54.42
51099;BME280;37146;48.210;16.234;2023-04-30T10:16:10;99182.19;;;17.19;55.63
51099;BME280;37146;48.210;16.234;2023-04-30T10:18:38;99177.38;;;17.81;53.77
51099;BME280;37146;48.210;16.234;2023-04-30T10:21:04;99176.00;;;17.64;55.47
51099;BME280;37146;48.210;16.234;2023-04-30T10:23:35;99171.75;;;17.84;53.61
51099;BME280;37146;48.210;16.234;2023-04-30T10:26:00;99164.81;;;17.68;55.51
51099;BME280;37146;48.210;16.234;2023-04-30T10:28:26;99159.59;;;17.42;54.60
51099;BME280;37146;48.210;16.234;2023-04-30T10:30:52;99162.19;;;16.97;54.82
51099;BME280;37146;48.210;16.234;2023-04-30T10:33:19;99156.00;;;18.00;52.66
51099;BME280;37146;48.210;16.234;2023-04-30T10:35:50;99149.47;;;18.14;55.07
51099;BME280;37146;48.210;16.234;2023-04-30T10:38:20;99155.91;;;18.02;52.90
51099;BME280;37146;48.210;16.234;2023-04-30T10:40:46;99155.06;;;16.96;54.40
51099;BME280;37146;48.210;16.234;2023-04-30T10:43:12;99147.00;;;17.88;53.60
51099;BME280;37146;48.210;16.234;2023-04-30T10:45:37;99151.06;;;17.71;52.84
51099;BME280;37146;48.210;16.234;2023-04-30T10:48:05;99155.91;;;17.32;52.86
51099;BME280;37146;48.210;16.234;2023-04-30T10:50:31;99142.47;;;19.53;49.38
51099;BME280;37146;48.210;16.234;2023-04-30T10:53:03;99139.75;;;18.34;49.61
51099;BME280;37146;48.210;16.234;2023-04-30T10:55:28;99140.44;;;18.59;51.63
51099;BME280;37146;48.210;16.234;2023-04-30T10:57:54;99142.66;;;18.87;49.58
51099;BME280;37146;48.210;16.234;2023-04-30T11:00:24;99134.22;;;17.79;52.42
51099;BME280;37146;48.210;16.234;2023-04-30T11:02:51;99136.06;;;17.67;54.35
51099;BME280;37146;48.210;16.234;2023-04-30T11:05:19;99137.16;;;17.06;55.63
51099;BME280;37146;48.210;16.234;2023-04-30T11:07:48;99147.94;;;16.95;55.33
51099;BME280;37146;48.210;16.234;2023-04-30T11:10:14;99143.03;;;16.14;59.86
51099;BME280;37146;48.210;16.234;2023-04-30T11:12:39;99136.06;;;16.84;55.18
51099;BME280;37146;48.210;16.234;2023-04-30T11:15:06;99142.69;;;19.61;48.94
51099;BME280;37146;48.210;16.234;2023-04-30T11:17:31;99134.78;;;18.83;50.59
51099;BME280;37146;48.210;16.234;2023-04-30T11:20:00;99134.22;;;21.07;45.47
51099;BME280;37146;48.210;16.234;2023-04-30T11:22:26;99127.56;;;20.41;44.97
51099;BME280;37146;48.210;16.234;2023-04-30T11:27:22;99124.50;;;17.65;50.10
51099;BME280;37146;48.210;16.234;2023-04-30T11:29:48;99114.19;;;18.04;49.48
51099;BME280;37146;48.210;16.234;2023-04-30T11:32:15;99119.47;;;18.06;49.34
51099;BME280;37146;48.210;16.234;2023-04-30T11:34:42;99123.28;;;18.59;50.08
51099;BME280;37146;48.210;16.234;2023-04-30T11:37:08;99116.88;;;17.93;50.10
51099;BME280;37146;48.210;16.234;2023-04-30T11:39:33;99125.47;;;17.64;52.62
51099;BME280;37146;48.210;16.234;2023-04-30T11:42:00;99131.72;;;17.42;52.94
51099;BME280;37146;48.210;16.234;2023-04-30T11:44:27;99125.66;;;16.91;52.51
51099;BME280;37146;48.210;16.234;2023-04-30T11:46:52;99122.66;;;18.34;49.50
51099;BME280;37146;48.210;16.234;2023-04-30T11:49:21;99121.00;;;23.45;40.16
51099;BME280;37146;48.210;16.234;2023-04-30T11:51:49;99132.06;;;21.00;44.22
51099;BME280;37146;48.210;16.234;2023-04-30T11:54:15;99121.63;;;20.96;43.48
51099;BME280;37146;48.210;16.234;2023-04-30T11:56:47;99117.84;;;18.26;49.25
51099;BME280;37146;48.210;16.234;2023-04-30T11:59:13;99113.44;;;18.14;51.56
51099;BME280;37146;48.210;16.234;2023-04-30T12:01:39;99124.44;;;17.31;54.89
51099;BME280;37146;48.210;16.234;2023-04-30T12:04:04;99127.69;;;18.27;53.07
51099;BME280;37146;48.210;16.234;2023-04-30T12:06:30;99125.94;;;18.81;51.00
51099;BME280;37146;48.210;16.234;2023-04-30T12:08:56;99128.94;;;18.12;52.60
51099;BME280;37146;48.210;16.234;2023-04-30T12:11:22;99126.22;;;17.66;54.72
51099;BME280;37146;48.210;16.234;2023-04-30T12:14:02;99131.81;;;17.18;55.62
51099;BME280;37146;48.210;16.234;2023-04-30T12:16:28;99132.41;;;16.85;55.41
51099;BME280;37146;48.210;16.234;2023-04-30T12:19:02;99135.19;;;16.97;55.65
51099;BME280;37146;48.210;16.234;2023-04-30T12:21:27;99139.66;;;17.21;55.63
51099;BME280;37146;48.210;16.234;2023-04-30T12:23:53;99137.53;;;17.94;55.98
51099;BME280;37146;48.210;16.234;2023-04-30T12:26:18;99123.16;;;19.04;53.20
51099;BME280;37146;48.210;16.234;2023-04-30T12:28:45;99122.44;;;18.58;51.97
51099;BME280;37146;48.210;16.234;2023-04-30T12:31:10;99110.88;;;17.67;55.12
51099;BME280;37146;48.210;16.234;2023-04-30T12:33:36;99123.63;;;16.95;55.78
51099;BME280;37146;48.210;16.234;2023-04-30T12:36:01;99124.16;;;16.38;58.51
51099;BME280;37146;48.210;16.234;2023-04-30T12:38:26;99121.66;;;16.11;60.20
51099;BME280;37146;48.210;16.234;2023-04-30T12:40:52;99118.34;;;16.32;57.39
51099;BME280;37146;48.210;16.234;2023-04-30T12:43:17;99111.91;;;16.21;58.62
51099;BME280;37146;48.210;16.234;2023-04-30T12:45:49;99104.97;;;16.06;56.70
51099;BME280;37146;48.210;16.234;2023-04-30T12:48:15;99114.59;;;16.59;57.01
51099;BME280;37146;48.210;16.234;2023-04-30T12:50:41;99100.44;;;16.79;56.34
51099;BME280;37146;48.210;16.234;2023-04-30T12:53:11;99113.34;;;16.51;59.11
51099;BME280;37146;48.210;16.234;2023-04-30T12:55:36;99101.25;;;16.44;57.57
51099;BME280;37146;48.210;16.234;2023-04-30T13:03:08;99101.97;;;15.98;57.85
51099;BME280;37146;48.210;16.234;2023-04-30T13:05:33;99104.47;;;15.88;57.48
51099;BME280;37146;48.210;16.234;2023-04-30T13:08:02;99093.69;;;15.49;60.77
51099;BME280;37146;48.210;16.234;2023-04-30T13:10:29;99097.97;;;15.77;59.47
51099;BME280;37146;48.210;16.234;2023-04-30T13:12:55;99098.94;;;15.89;59.23
51099;BME280;37146;48.210;16.234;2023-04-30T13:15:20;99089.00;;;16.03;60.63
51099;BME280;37146;48.210;16.234;2023-04-30T13:17:45;99097.09;;;16.03;60.84
51099;BME280;37146;48.210;16.234;2023-04-30T13:20:11;99092.06;;;15.85;60.22